Naples, Florida
Current Conditions -  °F | °C
As of 11:53 AM on Tuesday 27 Jan 2015 (Local Time) from KAPF Reporting Station
Clear Clear  
Wind Chill: 64°   Ceiling: Unl
Heat Index: 64°   Visibility: 10mi
Dew Point: 45°   Wind: 7mph
Humidity: 50%   Direction: NA
Pressure: 30.09"   Gusts: NA
Location:  26.14°N, 81.79°W
Report Text: KAPF 271653Z VRB06KT 10SM CLR 18/07 A3009 RMK AO2 SLP187 T01780072
Loading
Personal Weather Stations






























Interactive Weather Map New forecast layout! Learn more

10-Day Weather Forecast

Advertisements
Track Severe Weather on mobile